Time;durP1;ratioP1;P1;durP2;ratioP2;P2;SDS_P1;SDS_P2;PMS_P1;PMS_P2;Temp;Humidity;BMP_temperature;BMP_pressure;BME280_temperature;BME280_humidity;BME280_pressure;Samples;Min_cycle;Max_cycle;Signal;HPM_P1;HPM_P2
2021/03/05 00:00:14;;;;;;;11.38;6.07;;;;;;;4.51;66.11;101377.34;689558;28;21049;-62
2021/03/05 00:00:36;;;;;;;11.60;5.80;;;;;;;4.53;66.34;101382.59;687454;28;70192;-63
2021/03/05 00:00:57;;;;;;;7.85;5.88;;;;;;;4.53;66.19;101384.38;688303;28;39047;-63
2021/03/05 00:01:19;;;;;;;9.10;5.97;;;;;;;4.53;66.08;101379.91;690428;28;16518;-63
2021/03/05 00:01:40;;;;;;;9.25;6.03;;;;;;;4.51;66.01;101384.50;689691;28;945;-63
2021/03/05 00:02:01;;;;;;;10.13;6.18;;;;;;;4.50;66.00;101386.34;689654;28;22381;-62
2021/03/05 00:02:23;;;;;;;11.02;5.97;;;;;;;4.50;66.09;101385.50;689266;28;21693;-62
2021/03/05 00:02:44;;;;;;;9.80;5.85;;;;;;;4.51;66.17;101376.50;688344;28;47453;-62
2021/03/05 00:03:06;;;;;;;8.50;5.88;;;;;;;4.51;66.15;101387.19;688992;28;22681;-61
2021/03/05 00:03:27;;;;;;;9.10;5.77;;;;;;;4.50;66.10;101385.50;688090;28;69502;-60
2021/03/05 00:03:49;;;;;;;9.52;5.70;;;;;;;4.49;66.03;101391.81;689949;28;46343;-62
2021/03/05 00:04:10;;;;;;;10.35;6.05;;;;;;;4.49;66.10;101392.66;690149;28;9197;-63
2021/03/05 00:04:31;;;;;;;9.43;6.07;;;;;;;4.46;66.06;101384.88;689313;28;18317;-64
2021/03/05 00:04:52;;;;;;;7.50;5.60;;;;;;;4.49;66.09;101386.47;689814;28;14875;-64
2021/03/05 00:05:13;;;;;;;6.97;5.63;;;;;;;4.47;66.11;101391.94;689833;28;20935;-63
2021/03/05 00:05:36;;;;;;;7.43;5.57;;;;;;;4.47;66.07;101399.13;689809;28;22867;-63
2021/03/05 00:05:57;;;;;;;7.13;5.50;;;;;;;4.47;66.11;101391.09;689044;28;1834;-62
2021/03/05 00:06:18;;;;;;;8.35;5.43;;;;;;;4.47;66.14;101388.41;689786;28;23408;-62
2021/03/05 00:06:39;;;;;;;10.38;6.00;;;;;;;4.46;65.99;101395.56;689110;28;22379;-62
2021/03/05 00:07:00;;;;;;;8.73;5.65;;;;;;;4.47;66.04;101397.28;689401;28;21537;-63
2021/03/05 00:07:22;;;;;;;7.50;5.70;;;;;;;4.47;65.91;101402.63;689392;28;18298;-62
2021/03/05 00:07:43;;;;;;;7.53;5.50;;;;;;;4.46;65.96;101395.56;687600;28;68486;-63
2021/03/05 00:08:05;;;;;;;7.97;5.35;;;;;;;4.47;65.89;101401.81;689718;28;23462;-63
2021/03/05 00:08:26;;;;;;;7.60;5.13;;;;;;;4.46;66.04;101400.09;688948;28;46163;-62
2021/03/05 00:08:48;;;;;;;6.93;5.05;;;;;;;4.46;65.93;101398.25;689922;28;21529;-63
2021/03/05 00:09:09;;;;;;;8.02;5.30;;;;;;;4.46;65.98;101405.44;688875;28;23558;-62
2021/03/05 00:09:30;;;;;;;9.20;5.50;;;;;;;4.45;66.06;101390.34;690182;28;974;-63
2021/03/05 00:09:51;;;;;;;7.57;5.55;;;;;;;4.46;65.98;101403.59;689658;28;19913;-62
2021/03/05 00:10:15;;;;;;;8.88;5.72;;;;;;;4.45;65.90;101404.59;690239;28;962;-62
2021/03/05 00:10:38;;;;;;;9.73;5.60;;;;;;;4.44;65.95;101400.19;689204;28;34670;-62
2021/03/05 00:11:04;;;;;;;9.95;5.38;;;;;;;4.44;65.93;101402.88;686959;28;92175;-62
2021/03/05 00:11:25;;;;;;;8.30;5.65;;;;;;;4.43;66.01;101400.31;685570;28;137996;-63
2021/03/05 00:11:46;;;;;;;8.23;5.75;;;;;;;4.43;65.83;101406.50;689538;28;20076;-61
2021/03/05 00:12:11;;;;;;;8.68;5.32;;;;;;;4.41;65.88;101403.13;690729;28;921;-61
2021/03/05 00:12:32;;;;;;;8.80;5.32;;;;;;;4.39;65.85;101396.19;686363;28;87728;-64
2021/03/05 00:12:53;;;;;;;8.52;5.38;;;;;;;4.43;65.80;101411.03;689734;28;21537;-63
2021/03/05 00:13:14;;;;;;;7.53;5.32;;;;;;;4.40;65.93;101398.72;688952;28;47202;-63
2021/03/05 00:13:36;;;;;;;8.90;5.68;;;;;;;4.42;65.89;101407.50;690609;28;21346;-64
2021/03/05 00:13:57;;;;;;;8.35;5.30;;;;;;;4.42;66.00;101403.97;689538;28;23490;-61
2021/03/05 00:14:18;;;;;;;8.85;5.35;;;;;;;4.43;65.91;101400.31;688800;28;22398;-63
2021/03/05 00:14:39;;;;;;;8.60;5.55;;;;;;;4.41;65.88;101405.78;689331;28;23453;-63
2021/03/05 00:15:00;;;;;;;8.70;5.10;;;;;;;4.43;65.94;101400.31;688660;28;46219;-64
2021/03/05 00:15:23;;;;;;;10.60;5.57;;;;;;;4.43;65.93;101403.84;689657;28;21527;-63
2021/03/05 00:15:44;;;;;;;7.50;5.20;;;;;;;4.41;65.87;101396.94;688270;28;46331;-63
2021/03/05 00:16:06;;;;;;;7.82;5.32;;;;;;;4.43;65.90;101406.50;689791;28;45337;-64
2021/03/05 00:16:28;;;;;;;7.87;5.40;;;;;;;4.42;65.86;101401.28;689309;28;14706;-64
2021/03/05 00:16:49;;;;;;;8.25;5.30;;;;;;;4.43;65.91;101405.66;687919;28;70293;-64
2021/03/05 00:17:10;;;;;;;7.13;5.13;;;;;;;4.41;65.84;101399.59;689837;28;23439;-64
2021/03/05 00:17:32;;;;;;;7.07;5.13;;;;;;;4.44;65.81;101407.38;689314;28;22360;-64
2021/03/05 00:17:53;;;;;;;8.57;5.55;;;;;;;4.43;65.89;101411.03;689468;28;16494;-64
2021/03/05 00:18:14;;;;;;;9.30;5.38;;;;;;;4.44;65.90;101404.72;689809;28;23475;-62
2021/03/05 00:18:35;;;;;;;8.48;5.53;;;;;;;4.39;65.96;101399.72;689891;28;45233;-62
2021/03/05 00:18:57;;;;;;;7.07;5.07;;;;;;;4.44;66.04;101408.22;690187;28;4381;-63
2021/03/05 00:19:18;;;;;;;8.43;5.35;;;;;;;4.40;65.94;101401.41;689355;28;19923;-62
2021/03/05 00:19:39;;;;;;;8.00;5.45;;;;;;;4.44;65.88;101410.91;689170;28;21539;-62
2021/03/05 00:20:00;;;;;;;7.15;5.10;;;;;;;4.44;65.82;101413.56;688863;28;43538;-63
2021/03/05 00:20:24;;;;;;;7.40;5.25;;;;;;;4.44;65.86;101410.91;689845;28;21871;-62
2021/03/05 00:20:49;;;;;;;7.13;5.35;;;;;;;4.40;65.76;101403.25;687931;28;56368;-63
2021/03/05 00:21:10;;;;;;;8.57;5.43;;;;;;;4.42;65.81;101412.84;686954;28;114698;-63
2021/03/05 00:21:31;;;;;;;8.18;5.35;;;;;;;4.43;65.81;101413.69;689552;28;19148;-63
2021/03/05 00:21:52;;;;;;;8.98;5.53;;;;;;;4.45;65.69;101417.09;689957;28;11341;-62
2021/03/05 00:22:13;;;;;;;9.02;5.70;;;;;;;4.43;65.79;101413.69;689889;28;18750;-62
2021/03/05 00:22:35;;;;;;;6.78;5.38;;;;;;;4.41;65.66;101418.31;687445;28;40887;-62
2021/03/05 00:22:57;;;;;;;6.65;5.22;;;;;;;4.42;65.65;101409.31;688857;28;46391;-63
2021/03/05 00:23:19;;;;;;;8.27;5.45;;;;;;;4.42;65.78;101418.22;688585;28;44066;-63
2021/03/05 00:23:40;;;;;;;7.55;5.43;;;;;;;4.43;65.78;101422.56;690514;28;17372;-63
2021/03/05 00:24:01;;;;;;;9.83;5.60;;;;;;;4.41;65.87;101412.97;689441;28;23485;-63
2021/03/05 00:24:22;;;;;;;9.23;5.50;;;;;;;4.42;65.79;101420.00;687931;28;46303;-63
2021/03/05 00:24:43;;;;;;;7.80;5.78;;;;;;;4.41;65.86;101421.00;689304;28;20746;-62
2021/03/05 00:25:05;;;;;;;9.02;5.57;;;;;;;4.41;65.94;101408.47;689827;28;22391;-62
2021/03/05 00:25:27;;;;;;;8.32;5.95;;;;;;;4.41;65.81;101421.00;688820;28;46311;-62
2021/03/05 00:25:49;;;;;;;8.85;5.88;;;;;;;4.42;65.78;101414.66;688126;28;44393;-61
2021/03/05 00:26:10;;;;;;;8.02;5.38;;;;;;;4.41;65.96;101418.31;689254;28;48043;-63
2021/03/05 00:26:31;;;;;;;9.18;5.57;;;;;;;4.41;65.85;101423.69;689614;28;23210;-63
2021/03/05 00:26:52;;;;;;;8.43;5.50;;;;;;;4.42;65.86;101420.00;689674;28;22310;-63
2021/03/05 00:27:14;;;;;;;6.80;5.47;;;;;;;4.41;65.78;101421.84;689771;28;21539;-63
2021/03/05 00:27:35;;;;;;;7.63;5.55;;;;;;;4.39;65.77;101413.09;688941;28;24328;-63
2021/03/05 00:27:56;;;;;;;7.03;5.25;;;;;;;4.39;65.92;101426.47;688273;28;40409;-62
2021/03/05 00:28:18;;;;;;;7.93;5.05;;;;;;;4.40;65.79;101427.31;689373;28;23351;-63
2021/03/05 00:28:39;;;;;;;8.82;5.47;;;;;;;4.39;65.86;101417.56;690570;28;13808;-63
2021/03/05 00:29:01;;;;;;;9.40;5.75;;;;;;;4.40;65.89;101422.81;688454;28;38031;-64
2021/03/05 00:29:22;;;;;;;7.18;5.65;;;;;;;4.39;65.89;101420.25;688332;28;45986;-64
2021/03/05 00:29:43;;;;;;;8.45;5.72;;;;;;;4.40;65.74;101427.31;689490;28;19073;-63
2021/03/05 00:30:05;;;;;;;7.45;5.63;;;;;;;4.41;65.83;101429.03;690120;28;16144;-63
2021/03/05 00:30:27;;;;;;;7.13;5.75;;;;;;;4.38;65.82;101427.44;688652;28;45334;-64
2021/03/05 00:30:48;;;;;;;7.25;5.53;;;;;;;4.39;65.75;101430.94;688914;28;45345;-64
2021/03/05 00:31:09;;;;;;;8.80;5.68;;;;;;;4.40;65.86;101428.16;690154;28;23427;-63
2021/03/05 00:31:31;;;;;;;9.02;5.50;;;;;;;4.41;65.66;101429.03;689117;28;21443;-63
2021/03/05 00:31:52;;;;;;;7.95;5.35;;;;;;;4.41;65.71;101431.69;689417;28;23290;-63
2021/03/05 00:32:13;;;;;;;8.13;5.70;;;;;;;4.40;65.69;101422.81;689554;28;24297;-63
2021/03/05 00:32:35;;;;;;;8.77;5.45;;;;;;;4.41;65.74;101431.69;688508;28;45255;-63
2021/03/05 00:32:56;;;;;;;8.93;5.45;;;;;;;4.38;65.74;101426.59;688992;28;46350;-62
2021/03/05 00:33:18;;;;;;;7.85;5.70;;;;;;;4.39;65.68;101426.47;690224;28;16162;-63
2021/03/05 00:33:39;;;;;;;7.47;5.63;;;;;;;4.38;65.67;101422.09;689455;28;45156;-62
2021/03/05 00:34:00;;;;;;;6.45;5.30;;;;;;;4.39;65.73;101430.94;689585;28;22441;-63
2021/03/05 00:34:21;;;;;;;7.97;5.70;;;;;;;4.37;65.68;101430.22;689073;28;23517;-62
2021/03/05 00:34:43;;;;;;;6.35;5.47;;;;;;;4.37;65.69;101431.06;689135;28;15989;-62
2021/03/05 00:35:07;;;;;;;8.55;5.70;;;;;;;4.37;65.71;101428.38;689386;28;20360;-63
2021/03/05 00:35:28;;;;;;;9.20;5.88;;;;;;;4.38;65.74;101429.25;686356;28;115240;-62
2021/03/05 00:35:49;;;;;;;8.68;6.13;;;;;;;4.38;65.78;101427.44;689151;28;22381;-63
2021/03/05 00:36:11;;;;;;;7.57;5.63;;;;;;;4.38;65.71;101429.25;690321;28;22370;-63
2021/03/05 00:36:32;;;;;;;9.65;5.53;;;;;;;4.39;65.71;101426.47;688865;28;44295;-64
2021/03/05 00:36:53;;;;;;;9.02;5.60;;;;;;;4.38;65.75;101437.28;689274;28;22384;-64
2021/03/05 00:37:14;;;;;;;8.27;5.55;;;;;;;4.37;65.69;101436.41;689869;28;17370;-64
2021/03/05 00:37:37;;;;;;;8.23;5.53;;;;;;;4.37;65.75;101439.09;689508;28;24101;-63
2021/03/05 00:37:58;;;;;;;7.43;5.43;;;;;;;4.38;65.68;101438.13;688926;28;39979;-62
2021/03/05 00:38:20;;;;;;;7.63;5.55;;;;;;;4.37;65.63;101441.75;689666;28;23460;-64
2021/03/05 00:38:41;;;;;;;8.38;5.55;;;;;;;4.31;65.65;101423.53;691055;28;5867;-62
2021/03/05 00:39:03;;;;;;;7.38;5.25;;;;;;;4.36;65.62;101437.41;690161;28;4116;-63
2021/03/05 00:39:24;;;;;;;7.53;5.65;;;;;;;4.37;65.67;101435.56;688821;28;46586;-63
2021/03/05 00:39:45;;;;;;;10.10;6.15;;;;;;;4.38;65.76;101437.28;688608;28;45259;-63
2021/03/05 00:40:09;;;;;;;8.48;5.60;;;;;;;4.38;65.60;101439.97;689554;28;23429;-63
2021/03/05 00:40:31;;;;;;;9.20;5.57;;;;;;;4.38;65.65;101438.13;688075;28;57695;-62
2021/03/05 00:40:52;;;;;;;10.05;5.70;;;;;;;4.39;65.58;101441.66;688780;28;22422;-63
2021/03/05 00:41:13;;;;;;;9.32;5.90;;;;;;;4.38;65.64;101440.81;690125;28;40423;-63
2021/03/05 00:41:35;;;;;;;8.98;5.90;;;;;;;4.39;65.59;101438.97;689830;28;22408;-63
2021/03/05 00:41:56;;;;;;;9.00;5.63;;;;;;;4.36;65.58;101439.22;688960;28;46350;-62
2021/03/05 00:42:18;;;;;;;8.88;5.93;;;;;;;4.38;65.55;101445.31;688936;28;22426;-63
2021/03/05 00:42:40;;;;;;;8.32;5.70;;;;;;;4.37;65.61;101440.91;685371;28;22194;-63
2021/03/05 00:43:01;;;;;;;7.65;5.93;;;;;;;4.36;65.60;101448.09;684186;28;70359;-61
2021/03/05 00:43:23;;;;;;;8.50;6.28;;;;;;;4.35;65.68;101441.03;684253;28;23438;-62
2021/03/05 00:43:44;;;;;;;8.27;6.13;;;;;;;4.36;65.64;101439.22;685910;28;918;-63
2021/03/05 00:44:06;;;;;;;8.50;6.03;;;;;;;4.36;65.68;101445.44;684113;28;45258;-63
2021/03/05 00:44:27;;;;;;;7.57;6.15;;;;;;;4.36;65.78;101449.91;685902;28;45323;-64
2021/03/05 00:44:48;;;;;;;8.23;6.13;;;;;;;4.31;65.80;101439.56;686989;28;20044;-62
2021/03/05 00:45:15;;;;;;;9.45;6.43;;;;;;;4.35;65.74;101448.22;686531;28;22270;-63
2021/03/05 00:45:37;;;;;;;10.90;6.85;;;;;;;4.33;65.76;101446.50;680354;28;138043;-64
2021/03/05 00:45:59;;;;;;;9.68;6.75;;;;;;;4.33;65.72;101443.84;683963;28;23512;-63
2021/03/05 00:46:25;;;;;;;9.85;6.65;;;;;;;4.33;65.69;101441.16;680964;28;136407;-64
2021/03/05 00:46:46;;;;;;;8.57;6.70;;;;;;;4.33;65.69;101445.66;685029;28;21431;-64
2021/03/05 00:47:07;;;;;;;8.60;6.47;;;;;;;4.35;65.73;101446.38;687684;28;22412;-62
2021/03/05 00:47:34;;;;;;;9.55;6.57;;;;;;;4.35;65.82;101445.56;685082;28;84856;-62
2021/03/05 00:47:56;;;;;;;10.25;6.90;;;;;;;4.34;65.73;101447.34;688378;28;42091;-62
2021/03/05 00:48:17;;;;;;;10.05;6.57;;;;;;;4.33;65.85;101445.66;689320;28;33157;-62
2021/03/05 00:48:39;;;;;;;11.20;7.10;;;;;;;4.29;65.55;101431.66;690040;28;23507;-61
2021/03/05 00:49:02;;;;;;;8.63;6.72;;;;;;;4.36;65.74;101449.91;682100;28;91962;-62
2021/03/05 00:49:26;;;;;;;10.15;7.13;;;;;;;4.35;65.65;101446.38;681588;28;69424;-62
2021/03/05 00:49:47;;;;;;;12.70;7.70;;;;;;;4.35;65.66;101442.88;681864;28;44381;-63
2021/03/05 00:50:09;;;;;;;9.70;6.88;;;;;;;4.31;65.63;101443.13;683057;28;19931;-62
2021/03/05 00:50:31;;;;;;;8.68;6.57;;;;;;;4.31;65.58;101443.13;682246;28;46662;-63
2021/03/05 00:50:53;;;;;;;10.10;7.00;;;;;;;4.33;65.85;101451.00;683241;28;36984;-62
2021/03/05 00:51:14;;;;;;;11.73;7.45;;;;;;;4.32;65.70;101443.94;689728;28;44370;-62
2021/03/05 00:51:35;;;;;;;12.27;7.50;;;;;;;4.32;65.59;101446.63;690292;28;1022;-63
2021/03/05 00:51:57;;;;;;;11.55;7.80;;;;;;;4.31;65.61;101444.91;686397;28;23424;-62
2021/03/05 00:52:18;;;;;;;11.60;7.47;;;;;;;4.31;65.61;101451.13;685282;28;14257;-63
2021/03/05 00:52:40;;;;;;;11.82;7.60;;;;;;;4.32;65.52;101443.94;683621;28;46374;-62
2021/03/05 00:53:01;;;;;;;11.30;7.68;;;;;;;4.31;65.57;101450.25;681952;28;46478;-63
2021/03/05 00:53:23;;;;;;;11.65;7.47;;;;;;;4.31;65.55;101445.78;681571;28;46525;-62
2021/03/05 00:53:44;;;;;;;10.88;7.78;;;;;;;4.31;65.58;101448.47;684608;28;10533;-62
2021/03/05 00:54:10;;;;;;;10.93;7.65;;;;;;;4.31;65.73;101447.59;679076;28;106608;-63
2021/03/05 00:54:37;;;;;;;12.68;7.93;;;;;;;4.32;65.61;101447.47;679745;29;61347;-62
2021/03/05 00:54:59;;;;;;;13.00;7.65;;;;;;;4.32;65.54;101449.31;681224;29;23439;-63
2021/03/05 00:55:22;;;;;;;13.05;7.97;;;;;;;4.31;65.53;101451.13;680948;28;15037;-63
2021/03/05 00:55:47;;;;;;;12.35;7.95;;;;;;;4.32;65.47;101449.31;678265;28;115983;-62
2021/03/05 00:56:13;;;;;;;13.23;8.38;;;;;;;4.30;65.50;101452.09;678507;29;138067;-63
2021/03/05 00:56:34;;;;;;;12.80;8.00;;;;;;;4.28;65.43;101448.69;684395;28;21654;-62
2021/03/05 00:56:55;;;;;;;11.18;7.78;;;;;;;4.29;65.41;101452.22;684245;28;23892;-63
2021/03/05 00:57:16;;;;;;;14.02;8.43;;;;;;;4.30;65.42;101449.41;685603;28;22446;-62
2021/03/05 00:57:40;;;;;;;12.52;8.52;;;;;;;4.28;65.33;101451.38;687469;28;1454;-63
2021/03/05 00:58:01;;;;;;;13.38;8.75;;;;;;;4.27;65.25;101449.66;685412;28;69216;-62
2021/03/05 00:58:23;;;;;;;14.70;8.70;;;;;;;4.27;65.29;101451.50;687154;28;10046;-62
2021/03/05 00:58:49;;;;;;;13.18;8.73;;;;;;;4.28;65.25;101447.84;684510;28;125695;-63
2021/03/05 00:59:18;;;;;;;13.23;8.35;;;;;;;4.28;65.30;101455.88;682193;28;81139;-63
2021/03/05 00:59:44;;;;;;;11.93;8.10;;;;;;;4.25;65.26;101451.59;680561;29;61444;-62
2021/03/05 01:00:07;;;;;;;14.75;9.23;;;;;;;4.24;65.28;101444.53;682219;28;22509;-62
2021/03/05 01:00:30;;;;;;;15.02;9.13;;;;;;;4.23;65.38;101445.53;681110;29;38155;-63
2021/03/05 01:00:51;;;;;;;13.73;8.80;;;;;;;4.23;65.35;101450.88;682033;29;1547;-62
2021/03/05 01:01:15;;;;;;;13.50;8.40;;;;;;;4.23;65.35;101450.00;680730;29;57618;-60
2021/03/05 01:01:36;;;;;;;14.50;9.10;;;;;;;4.24;65.35;101455.25;682650;28;40911;-63
2021/03/05 01:01:57;;;;;;;12.15;8.40;;;;;;;4.23;65.40;101448.22;685831;28;22675;-63
2021/03/05 01:02:19;;;;;;;14.77;8.75;;;;;;;4.25;65.47;101450.75;687562;28;24268;-60
2021/03/05 01:02:41;;;;;;;15.35;8.52;;;;;;;4.25;65.48;101442.75;685778;28;45814;-64
2021/03/05 01:03:02;;;;;;;13.32;8.40;;;;;;;4.24;65.37;101449.06;687214;28;23422;-63
2021/03/05 01:03:23;;;;;;;11.35;8.05;;;;;;;4.23;65.39;101450.88;686469;28;47463;-63
2021/03/05 01:03:44;;;;;;;13.32;8.27;;;;;;;4.24;65.43;101457.06;688047;28;21351;-63
2021/03/05 01:04:06;;;;;;;12.98;8.55;;;;;;;4.23;65.48;101453.56;685140;28;42746;-62
2021/03/05 01:04:34;;;;;;;11.60;8.23;;;;;;;4.22;65.33;101448.31;678686;28;136316;-63
2021/03/05 01:04:55;;;;;;;12.80;8.82;;;;;;;4.23;65.42;101455.34;682835;28;11826;-62
2021/03/05 01:05:17;;;;;;;11.43;8.40;;;;;;;4.23;65.49;101458.91;684809;28;9204;-63
2021/03/05 01:05:39;;;;;;;13.75;8.68;;;;;;;4.21;65.41;101449.28;678231;29;67471;-63
2021/03/05 01:06:05;;;;;;;12.55;8.48;;;;;;;4.21;65.48;101454.63;681523;28;64905;-63
2021/03/05 01:06:26;;;;;;;10.88;7.82;;;;;;;4.22;65.46;101457.19;681575;28;92259;-64
2021/03/05 01:06:55;;;;;;;14.63;8.32;;;;;;;4.19;65.50;101452.06;677177;29;139118;-62
2021/03/05 01:07:18;;;;;;;11.98;8.27;;;;;;;4.21;65.53;101455.47;680073;29;69535;-61
2021/03/05 01:07:40;;;;;;;12.73;8.80;;;;;;;4.18;65.56;101453.03;683891;28;22404;-64
2021/03/05 01:08:07;;;;;;;12.85;8.43;;;;;;;4.19;65.55;101456.59;682545;28;162123;-61
2021/03/05 01:08:34;;;;;;;10.65;7.93;;;;;;;4.18;65.60;101457.53;681334;28;136227;-63
2021/03/05 01:08:57;;;;;;;12.68;8.23;;;;;;;4.17;65.66;101459.38;684710;28;69443;-62
2021/03/05 01:09:18;;;;;;;13.50;8.43;;;;;;;4.19;65.56;101452.06;686710;28;22417;-63
2021/03/05 01:09:40;;;;;;;12.77;8.40;;;;;;;4.19;65.66;101454.75;687727;28;14247;-62
2021/03/05 01:10:02;;;;;;;12.80;8.60;;;;;;;4.20;65.79;101455.59;686815;28;31905;-63
2021/03/05 01:10:23;;;;;;;11.60;8.10;;;;;;;4.18;65.64;101452.19;686296;28;44442;-63
2021/03/05 01:10:44;;;;;;;13.80;8.88;;;;;;;4.20;65.72;101447.56;687767;28;6275;-63
2021/03/05 01:11:05;;;;;;;13.45;8.48;;;;;;;4.20;65.80;101443.09;688150;28;23493;-64
2021/03/05 01:11:30;;;;;;;13.57;8.13;;;;;;;4.19;65.77;101451.25;687028;28;93183;-63
2021/03/05 01:11:51;;;;;;;11.90;7.95;;;;;;;4.21;65.78;101458.16;689525;28;35348;-62
2021/03/05 01:12:12;;;;;;;11.80;8.18;;;;;;;4.20;65.61;101450.25;690445;28;8845;-62
2021/03/05 01:12:34;;;;;;;12.75;8.18;;;;;;;4.20;65.88;101447.56;689811;28;23516;-63
2021/03/05 01:12:56;;;;;;;13.63;8.32;;;;;;;4.21;65.65;101451.97;689657;28;26345;-63
2021/03/05 01:13:17;;;;;;;13.80;8.18;;;;;;;4.20;65.62;101447.56;688202;28;44423;-63
2021/03/05 01:13:38;;;;;;;13.15;7.95;;;;;;;4.18;65.68;101447.69;688596;28;18247;-63
2021/03/05 01:14:00;;;;;;;12.07;7.70;;;;;;;4.18;65.62;101453.03;687521;28;22394;-63
2021/03/05 01:14:47;;;;;;;13.23;8.43;;;;;;;4.20;65.47;101451.13;683177;28;138291;-64
2021/03/05 01:15:10;;;;;;;12.65;8.23;;;;;;;4.16;65.54;101444.28;687352;28;23738;-62
2021/03/05 01:15:34;;;;;;;13.85;8.15;;;;;;;4.19;65.49;101453.91;686302;28;61782;-63
2021/03/05 01:15:55;;;;;;;13.40;8.30;;;;;;;4.18;65.49;101450.38;687206;28;12876;-62
2021/03/05 01:16:16;;;;;;;13.15;8.70;;;;;;;4.19;65.42;101449.41;688382;28;21159;-63
2021/03/05 01:16:37;;;;;;;12.30;8.13;;;;;;;4.20;65.51;101452.91;687770;28;1292;-63
2021/03/05 01:16:58;;;;;;;13.18;8.23;;;;;;;4.18;65.37;101450.38;688022;28;891;-62
2021/03/05 01:17:19;;;;;;;12.47;8.00;;;;;;;4.19;65.45;101453.91;687511;28;23430;-63
2021/03/05 01:17:41;;;;;;;12.60;8.40;;;;;;;4.17;65.38;101455.81;686120;28;46358;-62
2021/03/05 01:18:03;;;;;;;12.00;7.78;;;;;;;4.17;65.29;101455.81;687777;28;4961;-62
2021/03/05 01:18:24;;;;;;;9.90;7.72;;;;;;;4.18;65.28;101454.88;686486;28;46399;-62
2021/03/05 01:18:47;;;;;;;11.90;7.93;;;;;;;4.17;65.39;101453.16;688800;28;969;-63
2021/03/05 01:19:10;;;;;;;11.65;7.80;;;;;;;4.17;65.44;101456.69;688029;28;4182;-61
2021/03/05 01:19:33;;;;;;;12.90;8.55;;;;;;;4.17;65.42;101450.47;685865;28;59654;-62
2021/03/05 01:19:54;;;;;;;12.50;8.10;;;;;;;4.18;65.28;101457.53;685433;28;64102;-63
2021/03/05 01:20:18;;;;;;;10.90;7.95;;;;;;;4.17;65.47;101451.34;686483;28;19946;-62
2021/03/05 01:20:39;;;;;;;12.38;7.93;;;;;;;4.18;65.31;101452.19;685004;28;92929;-62
2021/03/05 01:21:05;;;;;;;12.38;7.95;;;;;;;4.17;65.32;101459.38;687225;28;22359;-64
2021/03/05 01:21:26;;;;;;;11.90;7.78;;;;;;;4.16;65.30;101455.00;683369;28;138823;-64
2021/03/05 01:21:47;;;;;;;10.75;7.95;;;;;;;4.15;65.21;101459.50;687050;28;23482;-63
2021/03/05 01:22:08;;;;;;;13.30;8.35;;;;;;;4.18;65.21;101463.72;687635;28;21539;-62
2021/03/05 01:22:29;;;;;;;14.90;8.35;;;;;;;4.18;65.26;101458.38;687225;28;22263;-63
2021/03/05 01:22:52;;;;;;;12.52;8.00;;;;;;;4.17;65.21;101459.38;687736;28;12578;-63
2021/03/05 01:23:13;;;;;;;11.98;7.70;;;;;;;4.16;65.26;101455.00;686300;28;61966;-63
2021/03/05 01:23:34;;;;;;;12.95;8.15;;;;;;;4.16;65.24;101457.66;688699;28;17023;-61
2021/03/05 01:23:55;;;;;;;11.43;7.95;;;;;;;4.18;65.20;101463.72;687465;28;9754;-60
2021/03/05 01:24:17;;;;;;;11.80;7.82;;;;;;;4.17;65.19;101458.50;687144;28;23366;-62
2021/03/05 01:24:38;;;;;;;11.98;8.10;;;;;;;4.18;65.17;101460.22;686131;28;46283;-61
2021/03/05 01:24:59;;;;;;;12.68;8.23;;;;;;;4.14;65.20;101459.59;687508;28;24426;-62
2021/03/05 01:25:22;;;;;;;11.40;7.93;;;;;;;4.18;65.07;101457.53;687054;28;22208;-63
2021/03/05 01:25:43;;;;;;;11.10;7.68;;;;;;;4.17;65.09;101455.81;685531;28;66380;-61
2021/03/05 01:26:07;;;;;;;11.30;7.65;;;;;;;4.15;65.05;101458.63;688463;28;20058;-63
2021/03/05 01:26:28;;;;;;;10.65;7.57;;;;;;;4.15;64.96;101454.16;685278;28;79002;-62
2021/03/05 01:26:49;;;;;;;11.32;7.80;;;;;;;4.16;65.06;101465.69;687198;28;23382;-61
2021/03/05 01:27:11;;;;;;;12.95;7.97;;;;;;;4.13;65.06;101456.06;687159;28;23496;-62
2021/03/05 01:27:32;;;;;;;10.90;7.75;;;;;;;4.17;65.17;101461.19;686396;28;46357;-60
2021/03/05 01:27:53;;;;;;;13.38;8.10;;;;;;;4.17;65.12;101459.38;686567;28;22508;-63
2021/03/05 01:28:14;;;;;;;13.05;7.78;;;;;;;4.17;65.14;101463.84;687320;28;21573;-62
2021/03/05 01:28:35;;;;;;;12.77;7.85;;;;;;;4.14;65.12;101456.94;687745;28;22401;-63
2021/03/05 01:28:57;;;;;;;12.55;7.80;;;;;;;4.16;65.01;101463.00;687195;28;23728;-62
2021/03/05 01:29:18;;;;;;;13.43;7.88;;;;;;;4.17;65.03;101466.53;686281;28;44389;-63
2021/03/05 01:29:39;;;;;;;12.57;7.70;;;;;;;4.12;65.06;101462.41;686974;28;23044;-61
2021/03/05 01:30:00;;;;;;;12.27;7.68;;;;;;;4.15;65.13;101464.84;685343;28;22368;-62
2021/03/05 01:30:22;;;;;;;13.20;7.85;;;;;;;4.16;65.00;101460.34;685546;28;22263;-63
2021/03/05 01:30:43;;;;;;;15.85;7.82;;;;;;;4.16;65.14;101463.00;683680;28;70424;-62
2021/03/05 01:31:05;;;;;;;14.98;8.15;;;;;;;4.17;65.10;101469.19;685485;28;23314;-62
2021/03/05 01:31:26;;;;;;;13.90;8.35;;;;;;;4.17;65.04;101461.19;685554;28;22412;-61
2021/03/05 01:31:48;;;;;;;15.23;8.40;;;;;;;4.18;64.97;101468.25;689868;28;4639;-62
2021/03/05 01:32:09;;;;;;;12.80;8.27;;;;;;;4.17;64.90;101469.19;686167;28;44108;-59
2021/03/05 01:32:30;;;;;;;12.00;8.18;;;;;;;4.17;64.79;101463.84;687497;28;22469;-62
2021/03/05 01:32:51;;;;;;;12.73;8.05;;;;;;;4.17;64.77;101474.53;687327;28;11207;-62
2021/03/05 01:33:12;;;;;;;13.38;8.07;;;;;;;4.15;64.75;101472.84;687214;28;32563;-62
2021/03/05 01:33:35;;;;;;;12.60;8.13;;;;;;;4.15;64.67;101466.63;687654;28;1250;-61
2021/03/05 01:33:56;;;;;;;12.38;8.27;;;;;;;4.16;64.54;101465.69;687712;28;9321;-61
2021/03/05 01:34:17;;;;;;;10.63;7.72;;;;;;;4.14;64.65;101468.47;688155;28;23233;-63
2021/03/05 01:34:38;;;;;;;10.68;7.38;;;;;;;4.15;64.57;101466.63;686816;28;23622;-61
2021/03/05 01:34:59;;;;;;;10.35;7.45;;;;;;;4.14;64.71;101464.97;686411;28;16609;-62
2021/03/05 01:35:23;;;;;;;12.00;7.63;;;;;;;4.12;64.67;101467.75;686342;28;46329;-61
2021/03/05 01:35:44;;;;;;;11.27;7.35;;;;;;;4.12;64.59;101472.22;685143;28;69460;-62
2021/03/05 01:36:08;;;;;;;11.80;7.85;;;;;;;4.11;64.47;101468.72;687098;28;23385;-62
2021/03/05 01:36:29;;;;;;;13.68;8.40;;;;;;;4.11;64.55;101467.88;684713;28;92272;-61
2021/03/05 01:36:55;;;;;;;11.32;7.93;;;;;;;4.09;64.59;101467.97;685949;28;59443;-60
2021/03/05 01:37:16;;;;;;;11.48;7.70;;;;;;;4.10;64.61;101467.00;687536;28;20767;-57
2021/03/05 01:37:37;;;;;;;12.35;8.13;;;;;;;4.10;64.72;101468.81;688210;28;914;-58
2021/03/05 01:37:59;;;;;;;12.98;8.00;;;;;;;4.09;64.56;101472.44;686926;28;21552;-62
2021/03/05 01:38:20;;;;;;;13.25;7.40;;;;;;;4.07;64.56;101469.91;686504;28;46663;-62
2021/03/05 01:38:42;;;;;;;13.20;7.88;;;;;;;4.08;64.47;101468.09;687098;28;21537;-61
2021/03/05 01:39:05;;;;;;;12.77;7.65;;;;;;;4.06;64.51;101472.69;687145;28;45257;-61
2021/03/05 01:39:26;;;;;;;14.50;8.25;;;;;;;4.06;64.52;101476.22;684917;28;89262;-61
2021/03/05 01:39:47;;;;;;;13.85;8.65;;;;;;;4.02;64.41;101463.22;687679;28;5085;-62
2021/03/05 01:40:11;;;;;;;14.63;8.40;;;;;;;4.05;64.59;101479.03;686870;28;24721;-62
2021/03/05 01:40:35;;;;;;;15.98;8.10;;;;;;;4.04;64.56;101470.13;684365;28;105711;-61
2021/03/05 01:40:56;;;;;;;13.20;7.72;;;;;;;4.04;64.49;101474.63;685816;28;69449;-62
2021/03/05 01:41:17;;;;;;;14.90;7.90;;;;;;;4.04;64.54;101472.81;687125;28;21657;-62
2021/03/05 01:41:39;;;;;;;14.32;8.45;;;;;;;4.03;64.46;101470.25;688286;28;11860;-61
2021/03/05 01:42:00;;;;;;;14.20;8.68;;;;;;;4.05;64.59;101479.03;686404;28;44401;-62
2021/03/05 01:42:21;;;;;;;12.65;7.93;;;;;;;4.05;64.55;101474.50;687562;28;18449;-60
2021/03/05 01:42:42;;;;;;;12.05;8.13;;;;;;;4.04;64.44;101477.31;686693;28;21531;-61
2021/03/05 01:43:05;;;;;;;10.95;7.72;;;;;;;4.05;64.47;101471.00;686283;28;45101;-59
2021/03/05 01:43:30;;;;;;;13.80;8.48;;;;;;;4.03;64.66;101473.78;685608;28;66474;-64
2021/03/05 01:43:51;;;;;;;17.02;8.70;;;;;;;4.04;64.46;101477.31;685169;28;78421;-63
2021/03/05 01:44:13;;;;;;;14.23;8.52;;;;;;;4.03;64.34;101487.16;687630;28;21537;-62